Time;durP1;ratioP1;P1;durP2;ratioP2;P2;SDS_P1;SDS_P2;PMS_P1;PMS_P2;Temp;Humidity;BMP_temperature;BMP_pressure;BME280_temperature;BME280_humidity;BME280_pressure;Samples;Min_cycle;Max_cycle;Signal;HPM_P1;HPM_P2
2021/05/16 00:00:12;;;;;;;0.10;0.10;;;;;;;24.72;29.15;98349.53;5095470;28;20028;-54
2021/05/16 00:02:38;;;;;;;0.00;0.00;;;;;;;24.68;28.99;98359.81;5095761;28;20040;-54
2021/05/16 00:05:05;;;;;;;0.10;0.10;;;;;;;24.65;29.13;98355.69;5095823;28;20043;-53
2021/05/16 00:07:31;;;;;;;0.15;0.15;;;;;;;24.63;29.27;98352.41;5095365;28;20036;-54
2021/05/16 00:09:57;;;;;;;0.35;0.10;;;;;;;24.64;29.19;98352.06;5095618;28;20028;-54
2021/05/16 00:12:23;;;;;;;0.10;0.10;;;;;;;24.67;29.29;98358.97;5095925;28;20039;-54
2021/05/16 00:14:49;;;;;;;0.20;0.20;;;;;;;24.72;29.06;98346.72;5095352;28;20114;-53
2021/05/16 00:17:15;;;;;;;0.00;0.00;;;;;;;24.79;28.82;98355.44;5095228;28;20119;-50
2021/05/16 00:19:41;;;;;;;0.30;0.15;;;;;;;24.82;29.13;98358.41;5076950;28;20028;-53
2021/05/16 00:22:07;;;;;;;0.10;0.10;;;;;;;24.91;28.94;98349.06;5095347;28;20024;-55
2021/05/16 00:24:32;;;;;;;0.10;0.10;;;;;;;25.05;28.71;98346.81;5095410;28;20115;-54
2021/05/16 00:26:58;;;;;;;0.10;0.10;;;;;;;25.17;28.42;98340.44;5095314;28;20505;-54
2021/05/16 00:29:24;;;;;;;0.00;0.00;;;;;;;25.30;28.21;98341.34;5095304;28;20630;-52
2021/05/16 00:31:50;;;;;;;0.00;0.00;;;;;;;25.48;28.33;98348.44;5094980;28;20413;-53
2021/05/16 00:34:16;;;;;;;0.10;0.10;;;;;;;25.63;28.39;98346.16;5095008;28;20035;-53
2021/05/16 00:36:42;;;;;;;0.20;0.20;;;;;;;25.82;27.76;98349.25;5095340;28;20032;-51
2021/05/16 00:39:07;;;;;;;0.15;0.15;;;;;;;26.03;27.57;98351.22;5095076;28;20040;-53
2021/05/16 00:41:33;;;;;;;0.85;0.75;;;;;;;26.29;27.46;98361.34;5094899;28;20509;-52
2021/05/16 00:43:59;;;;;;;0.10;0.10;;;;;;;26.55;27.09;98352.53;5094825;28;20568;-53
2021/05/16 00:46:25;;;;;;;0.10;0.10;;;;;;;26.86;27.12;98360.41;5094406;28;20417;-53
2021/05/16 00:48:51;;;;;;;0.75;0.75;;;;;;;27.16;26.59;98364.91;5094750;28;20558;-55
2021/05/16 00:51:17;;;;;;;0.10;0.10;;;;;;;27.41;26.41;98376.97;5076437;28;20078;-54
2021/05/16 00:53:43;;;;;;;0.17;0.17;;;;;;;27.62;26.65;98373.94;5094928;28;20490;-54
2021/05/16 00:56:08;;;;;;;0.10;0.10;;;;;;;27.90;26.18;98367.44;5095030;28;20060;-52
2021/05/16 00:58:35;;;;;;;0.20;0.20;;;;;;;28.17;25.91;98374.25;5076151;28;20032;-54
2021/05/16 01:01:07;;;;;;;0.10;0.10;;;;;;;28.35;25.79;98388.81;5093476;28;20028;-54
2021/05/16 01:03:33;;;;;;;0.10;0.10;;;;;;;28.27;26.24;98384.19;5094469;28;20433;-54
2021/05/16 01:05:59;;;;;;;0.98;0.70;;;;;;;28.26;26.16;98379.72;5094407;28;20035;-54
2021/05/16 01:08:25;;;;;;;0.10;0.10;;;;;;;28.56;25.93;98391.34;5094116;28;20027;-55
2021/05/16 01:10:51;;;;;;;0.13;0.13;;;;;;;28.97;25.86;98369.34;5075983;28;20028;-55
2021/05/16 01:13:17;;;;;;;0.30;0.30;;;;;;;29.32;25.30;98367.72;5094196;28;20567;-55
2021/05/16 01:15:45;;;;;;;0.08;0.08;;;;;;;29.54;25.34;98378.28;5075913;28;20458;-55
2021/05/16 01:18:11;;;;;;;0.00;0.00;;;;;;;29.73;25.26;98392.78;5075941;28;20468;-55
2021/05/16 01:20:43;;;;;;;0.00;0.00;;;;;;;30.02;24.87;98391.38;5075749;28;20036;-55
2021/05/16 01:23:12;;;;;;;0.10;0.10;;;;;;;30.34;24.70;98380.63;5075804;28;20032;-55
2021/05/16 01:25:40;;;;;;;0.20;0.20;;;;;;;30.73;24.20;98379.69;5093900;28;20028;-55
2021/05/16 01:28:07;;;;;;;0.17;0.17;;;;;;;31.14;23.95;98371.44;5093950;28;20034;-54
2021/05/16 01:30:34;;;;;;;0.38;0.38;;;;;;;31.52;23.44;98377.16;5075608;28;20083;-55
2021/05/16 01:33:03;;;;;;;0.52;0.43;;;;;;;31.87;23.31;98385.31;5094347;28;20237;-53
2021/05/16 01:35:30;;;;;;;0.00;0.00;;;;;;;32.24;23.15;98378.81;5093998;28;20032;-53
2021/05/16 01:37:56;;;;;;;0.10;0.10;;;;;;;32.52;23.02;98388.81;5094217;28;20107;-50
2021/05/16 01:40:24;;;;;;;0.10;0.10;;;;;;;32.79;22.88;98383.81;5093655;28;20393;-51
2021/05/16 01:42:52;;;;;;;0.10;0.10;;;;;;;33.11;22.61;98391.75;5093579;28;20505;-53
2021/05/16 01:45:23;;;;;;;0.10;0.10;;;;;;;33.48;22.42;98379.34;5093410;28;20040;-55
2021/05/16 01:47:49;;;;;;;0.00;0.00;;;;;;;33.88;22.14;98390.94;5093413;28;20048;-54
2021/05/16 01:50:17;;;;;;;0.00;0.00;;;;;;;34.24;21.92;98385.28;5093582;28;20032;-55
2021/05/16 01:52:45;;;;;;;0.77;0.63;;;;;;;34.55;21.60;98383.72;5093485;28;20038;-56
2021/05/16 01:55:12;;;;;;;0.03;0.03;;;;;;;34.85;21.38;98379.66;5075124;28;20405;-56
2021/05/16 01:57:39;;;;;;;0.03;0.03;;;;;;;35.16;21.21;98382.88;5093656;28;20070;-56
2021/05/16 02:00:07;;;;;;;0.10;0.10;;;;;;;35.57;21.15;98385.22;5093292;28;20032;-56
2021/05/16 02:02:34;;;;;;;0.38;0.38;;;;;;;35.93;20.56;98384.25;5093206;28;20032;-56
2021/05/16 02:05:01;;;;;;;0.03;0.03;;;;;;;36.18;20.75;98386.94;5093217;28;20110;-55
2021/05/16 02:07:27;;;;;;;0.10;0.10;;;;;;;36.51;20.70;98387.53;5093240;28;20098;-55
2021/05/16 02:09:54;;;;;;;0.00;0.00;;;;;;;36.89;20.00;98379.06;5093510;28;20034;-55
2021/05/16 02:12:20;;;;;;;0.03;0.03;;;;;;;37.20;20.21;98393.47;5093349;28;20028;-50
2021/05/16 02:14:46;;;;;;;0.20;0.20;;;;;;;37.45;19.92;98389.56;5093178;28;20036;-53
2021/05/16 02:17:14;;;;;;;0.30;0.30;;;;;;;37.65;19.58;98393.38;5093022;28;20551;-51
2021/05/16 02:19:41;;;;;;;0.17;0.10;;;;;;;37.65;20.15;98393.38;5093224;28;20390;-56
2021/05/16 02:22:07;;;;;;;0.10;0.10;;;;;;;37.56;19.69;98395.97;5093215;28;20035;-56
2021/05/16 02:24:33;;;;;;;0.05;0.05;;;;;;;37.66;20.17;98408.50;5092899;28;20032;-55
2021/05/16 02:27:00;;;;;;;0.10;0.10;;;;;;;37.80;20.01;98399.78;5093081;28;20388;-56
2021/05/16 02:29:27;;;;;;;0.10;0.10;;;;;;;37.89;19.70;98392.72;5092780;28;20039;-56
2021/05/16 02:31:54;;;;;;;0.22;0.17;;;;;;;37.94;20.13;98397.94;5092819;28;20028;-54
2021/05/16 02:34:20;;;;;;;0.10;0.10;;;;;;;38.08;19.96;98403.50;5092669;28;20067;-52
2021/05/16 02:36:47;;;;;;;0.10;0.10;;;;;;;38.17;19.87;98405.81;5093324;28;20059;-54
2021/05/16 02:39:13;;;;;;;0.10;0.10;;;;;;;38.17;19.89;98402.97;5092957;28;20119;-54
2021/05/16 02:41:38;;;;;;;0.10;0.10;;;;;;;38.19;19.96;98411.97;5093069;28;20073;-53
2021/05/16 02:44:05;;;;;;;0.20;0.20;;;;;;;38.30;19.81;98397.47;5074530;28;20036;-52
2021/05/16 02:46:31;;;;;;;0.28;0.28;;;;;;;38.49;19.41;98398.81;5092658;28;20143;-53
2021/05/16 02:48:57;;;;;;;0.17;0.17;;;;;;;38.66;19.35;98412.06;5074457;28;20028;-53
2021/05/16 02:51:23;;;;;;;0.03;0.03;;;;;;;38.89;19.50;98401.84;5092750;28;20532;-53
2021/05/16 02:53:48;;;;;;;0.20;0.20;;;;;;;39.02;19.41;98407.78;5093049;28;20034;-53
2021/05/16 02:56:18;;;;;;;0.03;0.03;;;;;;;38.72;19.50;98401.75;5092885;28;20077;-52
2021/05/16 02:58:44;;;;;;;0.10;0.10;;;;;;;38.35;19.68;98406.38;5074663;28;20035;-57
2021/05/16 03:01:11;;;;;;;0.00;0.00;;;;;;;38.23;20.08;98403.31;5074384;28;20077;-53
2021/05/16 03:03:40;;;;;;;0.10;0.10;;;;;;;38.40;19.42;98402.25;5092534;28;20118;-54
2021/05/16 03:06:07;;;;;;;0.40;0.38;;;;;;;38.70;19.06;98404.22;5092460;28;20405;-55
2021/05/16 03:08:33;;;;;;;1.17;0.35;;;;;;;39.26;18.68;98399.97;5092751;28;20054;-55
2021/05/16 03:10:59;;;;;;;0.00;0.00;;;;;;;39.87;18.30;98400.81;5092802;28;20525;-55
2021/05/16 03:13:25;;;;;;;0.00;0.00;;;;;;;40.39;17.81;98400.06;5092455;28;20024;-54
2021/05/16 03:15:51;;;;;;;0.08;0.08;;;;;;;40.68;17.68;98401.44;5092344;28;20450;-54
2021/05/16 03:18:17;;;;;;;0.00;0.00;;;;;;;40.43;17.90;98400.78;5092408;28;20027;-54
2021/05/16 03:20:43;;;;;;;0.17;0.17;;;;;;;40.15;18.01;98404.31;5092583;28;20529;-56
2021/05/16 03:23:09;;;;;;;0.10;0.10;;;;;;;39.85;18.79;98403.31;5093529;28;20036;-55
2021/05/16 03:25:36;;;;;;;0.15;0.15;;;;;;;39.69;18.38;98404.88;5096214;28;20031;-51
2021/05/16 03:28:05;;;;;;;0.10;0.10;;;;;;;39.53;18.60;98390.41;5096339;28;20036;-55
2021/05/16 03:30:31;;;;;;;0.10;0.10;;;;;;;39.54;18.60;98397.78;5096018;28;20024;-55
2021/05/16 03:32:57;;;;;;;0.10;0.10;;;;;;;39.67;18.22;98398.75;5061206;28;20485;-55
2021/05/16 03:35:23;;;;;;;0.10;0.10;;;;;;;39.92;18.09;98395.34;5096582;28;20557;-51
2021/05/16 03:37:48;;;;;;;0.03;0.03;;;;;;;40.14;17.96;98394.91;5096215;28;20118;-50
2021/05/16 03:40:15;;;;;;;0.08;0.08;;;;;;;40.46;17.96;98393.34;5096159;28;20038;-51
2021/05/16 03:42:41;;;;;;;0.10;0.10;;;;;;;40.89;17.41;98394.34;5096293;28;20035;-51
2021/05/16 03:45:09;;;;;;;0.10;0.10;;;;;;;41.29;17.02;98385.47;5096215;28;20087;-51
2021/05/16 03:47:35;;;;;;;0.10;0.10;;;;;;;41.42;16.74;98377.69;5095530;28;20051;-50
2021/05/16 03:50:03;;;;;;;0.55;0.25;;;;;;;41.51;16.64;98379.91;5095875;28;20047;-49
2021/05/16 03:52:30;;;;;;;0.10;0.10;;;;;;;41.28;16.87;98376.00;5096169;28;20020;-51
2021/05/16 03:54:56;;;;;;;0.10;0.10;;;;;;;41.27;16.75;98387.97;5095872;28;20063;-52
2021/05/16 03:57:22;;;;;;;0.10;0.10;;;;;;;41.72;16.58;98386.31;5095615;28;20054;-52
2021/05/16 03:59:48;;;;;;;0.10;0.10;;;;;;;42.31;15.87;98384.13;5095740;28;20134;-52
2021/05/16 04:02:14;;;;;;;0.10;0.10;;;;;;;42.94;15.45;98384.53;5095693;28;20471;-52
2021/05/16 04:04:40;;;;;;;0.20;0.20;;;;;;;43.25;15.31;98386.75;5095592;28;20085;-50
2021/05/16 04:07:06;;;;;;;0.10;0.10;;;;;;;43.46;15.23;98383.09;5095538;28;20056;-51
2021/05/16 04:09:32;;;;;;;0.10;0.10;;;;;;;43.50;15.42;98380.88;5095694;28;20032;-50
2021/05/16 04:11:58;;;;;;;0.30;0.30;;;;;;;43.47;15.22;98384.72;5095828;28;20105;-52
2021/05/16 04:14:24;;;;;;;0.10;0.10;;;;;;;43.29;15.65;98387.41;5095497;28;20111;-52
2021/05/16 04:16:51;;;;;;;0.20;0.20;;;;;;;43.12;15.54;98381.81;5095170;28;20405;-50
2021/05/16 04:19:18;;;;;;;0.10;0.10;;;;;;;43.00;15.67;98377.69;5095087;28;20028;-49
2021/05/16 04:21:44;;;;;;;0.10;0.10;;;;;;;43.09;15.47;98373.31;5095265;28;20043;-52
2021/05/16 04:24:11;;;;;;;0.10;0.10;;;;;;;43.27;15.53;98373.44;5095144;28;20049;-51
2021/05/16 04:26:37;;;;;;;0.05;0.05;;;;;;;43.50;15.33;98380.88;5095259;28;20024;-52
2021/05/16 04:29:03;;;;;;;0.10;0.10;;;;;;;43.55;15.15;98374.50;5095170;28;20508;-52
2021/05/16 04:31:29;;;;;;;0.00;0.00;;;;;;;43.40;15.11;98370.50;5094790;28;20052;-51
2021/05/16 04:33:55;;;;;;;0.10;0.10;;;;;;;43.29;15.69;98384.53;5094933;28;20059;-52
2021/05/16 04:36:21;;;;;;;0.10;0.10;;;;;;;43.00;15.85;98374.00;5094843;28;20055;-49
2021/05/16 04:38:48;;;;;;;0.20;0.20;;;;;;;42.79;16.05;98376.38;5095310;28;20456;-52
2021/05/16 04:41:15;;;;;;;0.10;0.10;;;;;;;42.70;15.94;98376.28;5094650;28;20432;-52
2021/05/16 04:43:41;;;;;;;0.00;0.00;;;;;;;42.43;16.05;98380.41;5076523;28;20143;-52
2021/05/16 04:46:08;;;;;;;0.00;0.00;;;;;;;42.15;16.44;98377.16;5094502;28;20116;-49
2021/05/16 04:48:34;;;;;;;0.10;0.10;;;;;;;41.99;16.47;98374.38;5095059;28;20058;-48
2021/05/16 04:50:59;;;;;;;0.10;0.10;;;;;;;41.82;16.54;98376.56;5059678;28;20569;-53
2021/05/16 04:53:30;;;;;;;0.22;0.22;;;;;;;41.50;16.53;98384.84;5094893;28;20028;-53
2021/05/16 04:55:56;;;;;;;0.10;0.10;;;;;;;41.19;16.92;98386.56;5090623;28;20035;-50
2021/05/16 04:58:22;;;;;;;0.10;0.10;;;;;;;40.89;17.09;98380.78;5091249;28;20072;-55
2021/05/16 05:00:49;;;;;;;0.30;0.30;;;;;;;40.63;16.92;98374.00;5091840;28;20541;-50
2021/05/16 05:03:16;;;;;;;0.03;0.03;;;;;;;40.29;17.20;98383.88;5091450;28;20115;-49
2021/05/16 05:05:41;;;;;;;0.10;0.10;;;;;;;40.07;17.55;98372.84;5090822;28;20058;-53
2021/05/16 05:08:07;;;;;;;0.10;0.10;;;;;;;39.82;17.36;98372.59;5089846;28;20472;-50
2021/05/16 05:10:33;;;;;;;0.00;0.00;;;;;;;39.37;17.89;98368.16;5090237;28;20036;-50
2021/05/16 05:12:59;;;;;;;0.10;0.10;;;;;;;38.79;18.34;98372.09;5071319;28;20059;-52
2021/05/16 05:15:26;;;;;;;0.00;0.00;;;;;;;38.20;18.27;98359.13;5090127;28;20073;-51
2021/05/16 05:17:52;;;;;;;0.10;0.10;;;;;;;37.66;18.63;98357.78;5089520;28;20027;-54
2021/05/16 05:20:18;;;;;;;0.10;0.10;;;;;;;37.00;19.10;98358.94;5089987;28;20035;-52
2021/05/16 05:22:43;;;;;;;0.10;0.10;;;;;;;36.35;19.04;98367.25;5089903;28;20036;-52
2021/05/16 05:25:09;;;;;;;0.10;0.10;;;;;;;35.85;19.69;98356.94;5090136;28;20039;-52
2021/05/16 05:27:35;;;;;;;0.10;0.10;;;;;;;35.47;19.61;98360.38;5071727;28;20035;-51
2021/05/16 05:30:02;;;;;;;0.00;0.00;;;;;;;35.17;19.55;98361.66;5072342;28;20028;-49
2021/05/16 05:32:28;;;;;;;0.00;0.00;;;;;;;34.88;19.83;98366.59;5091870;28;20031;-51
2021/05/16 05:34:54;;;;;;;0.20;0.20;;;;;;;34.45;20.03;98366.63;5092137;28;20046;-50
2021/05/16 05:37:19;;;;;;;0.00;0.00;;;;;;;34.03;19.99;98371.84;5092065;28;20031;-51
2021/05/16 05:39:45;;;;;;;0.03;0.03;;;;;;;33.62;20.13;98360.72;5092070;28;20036;-52
2021/05/16 05:42:11;;;;;;;0.10;0.10;;;;;;;33.41;20.18;98356.56;5073803;28;20057;-51
2021/05/16 05:44:39;;;;;;;0.20;0.20;;;;;;;33.14;20.11;98368.19;5091953;28;20047;-52
2021/05/16 05:47:06;;;;;;;0.10;0.10;;;;;;;32.79;20.28;98349.69;5091128;28;20453;-50
2021/05/16 05:49:32;;;;;;;0.10;0.10;;;;;;;32.55;20.36;98358.81;5091815;28;20497;-53
2021/05/16 05:52:00;;;;;;;0.00;0.00;;;;;;;32.40;20.29;98361.53;5088656;28;20055;-50
2021/05/16 05:54:27;;;;;;;0.30;0.30;;;;;;;32.21;20.15;98362.56;5091552;28;20073;-59
2021/05/16 05:56:53;;;;;;;0.25;0.25;;;;;;;32.09;20.40;98357.16;5073347;28;20060;-50
2021/05/16 05:59:19;;;;;;;0.00;0.00;;;;;;;32.08;20.04;98372.56;5091557;28;20024;-54
2021/05/16 06:01:44;;;;;;;0.10;0.10;;;;;;;31.97;19.88;98363.94;5091586;28;20040;-52
2021/05/16 06:04:10;;;;;;;0.00;0.00;;;;;;;31.88;20.08;98363.44;5091692;28;20440;-52
2021/05/16 06:06:36;;;;;;;0.00;0.00;;;;;;;31.75;20.01;98371.41;5073456;28;20048;-49
2021/05/16 06:09:04;;;;;;;0.00;0.00;;;;;;;31.65;19.93;98358.72;5091582;28;20035;-50
2021/05/16 06:11:30;;;;;;;0.10;0.10;;;;;;;31.63;19.79;98375.31;5071166;28;20016;-50
2021/05/16 06:13:55;;;;;;;0.03;0.03;;;;;;;31.59;19.69;98374.44;5091454;28;20027;-49
2021/05/16 06:16:21;;;;;;;0.10;0.10;;;;;;;31.51;19.66;98367.00;5088507;28;20038;-50
2021/05/16 06:18:48;;;;;;;0.20;0.10;;;;;;;31.44;19.70;98364.94;5091216;28;20073;-50
2021/05/16 06:21:15;;;;;;;0.10;0.10;;;;;;;31.38;19.76;98364.44;5073208;28;20707;-52
2021/05/16 06:26:25;;;;;;;0.17;0.17;;;;;;;31.22;19.60;98358.16;5089684;28;20051;-51
2021/05/16 06:28:51;;;;;;;0.10;0.10;;;;;;;31.18;19.62;98360.13;5069541;28;20024;-50
2021/05/16 06:31:17;;;;;;;0.00;0.00;;;;;;;31.10;19.64;98368.53;5085067;28;20035;-50
2021/05/16 06:33:43;;;;;;;0.05;0.05;;;;;;;31.00;19.57;98366.34;5089211;28;20537;-51
2021/05/16 06:36:09;;;;;;;0.47;0.10;;;;;;;30.95;19.56;98369.50;5088725;28;20024;-49
2021/05/16 06:38:34;;;;;;;0.10;0.10;;;;;;;30.88;19.52;98356.03;5089340;28;20036;-49
2021/05/16 06:41:00;;;;;;;0.10;0.10;;;;;;;30.86;19.75;98361.28;5088594;28;20035;-49
2021/05/16 06:43:26;;;;;;;0.17;0.17;;;;;;;30.87;19.58;98362.88;5068965;28;20028;-49
2021/05/16 06:45:52;;;;;;;0.10;0.10;;;;;;;30.87;19.58;98360.06;5088626;28;20028;-49
2021/05/16 06:48:18;;;;;;;0.10;0.10;;;;;;;30.81;19.30;98357.94;5088488;28;20169;-49
2021/05/16 06:50:45;;;;;;;0.10;0.10;;;;;;;30.78;19.40;98358.72;5088590;28;20101;-48
2021/05/16 06:53:11;;;;;;;0.28;0.22;;;;;;;30.77;19.44;98359.91;5088429;28;20422;-52
2021/05/16 06:55:38;;;;;;;0.15;0.15;;;;;;;30.69;19.43;98351.28;5088667;28;20110;-52
2021/05/16 06:58:04;;;;;;;0.00;0.00;;;;;;;30.63;19.70;98352.81;5089449;28;20119;-50
2021/05/16 07:00:30;;;;;;;0.00;0.00;;;;;;;30.58;19.52;98353.16;5092478;28;20032;-51
2021/05/16 07:02:56;;;;;;;0.10;0.10;;;;;;;30.54;19.41;98349.44;5093025;28;20028;-50
2021/05/16 07:05:22;;;;;;;0.20;0.10;;;;;;;30.52;19.47;98358.31;5092649;28;20090;-50
2021/05/16 07:07:48;;;;;;;0.10;0.10;;;;;;;30.53;19.40;98348.59;5092836;28;20035;-50
2021/05/16 07:10:15;;;;;;;0.15;0.15;;;;;;;30.53;19.33;98362.78;5088161;28;20028;-52
2021/05/16 07:12:41;;;;;;;0.20;0.20;;;;;;;30.52;19.45;98357.47;5090203;28;20114;-51
2021/05/16 07:15:11;;;;;;;0.22;0.22;;;;;;;30.51;19.55;98359.50;5092158;28;20119;-52
2021/05/16 07:17:37;;;;;;;0.00;0.00;;;;;;;30.52;19.28;98357.47;5090014;28;20059;-53
2021/05/16 07:20:04;;;;;;;0.10;0.10;;;;;;;30.51;19.46;98355.88;5091750;28;20494;-54
2021/05/16 07:22:30;;;;;;;0.17;0.17;;;;;;;30.48;19.18;98354.59;5088364;28;20413;-52
2021/05/16 07:24:55;;;;;;;0.10;0.10;;;;;;;30.46;19.40;98359.00;5090188;28;20101;-55
2021/05/16 07:27:21;;;;;;;0.10;0.10;;;;;;;30.44;19.36;98350.91;5090879;28;20020;-53
2021/05/16 07:29:49;;;;;;;0.03;0.03;;;;;;;30.41;19.30;98343.16;5090954;28;20554;-52
2021/05/16 07:32:15;;;;;;;0.00;0.00;;;;;;;30.39;19.47;98354.84;5072656;28;20031;-53
2021/05/16 07:34:41;;;;;;;0.10;0.10;;;;;;;30.39;19.27;98363.34;5089456;28;20031;-54
2021/05/16 07:37:09;;;;;;;0.10;0.10;;;;;;;30.39;19.22;98348.38;5087719;28;20829;-53
2021/05/16 07:39:39;;;;;;;0.00;0.00;;;;;;;30.32;19.33;98363.22;5091412;28;20020;-50
2021/05/16 07:42:05;;;;;;;0.10;0.10;;;;;;;30.32;19.53;98365.22;5088998;28;20489;-53
2021/05/16 07:44:56;;;;;;;0.10;0.10;;;;;;;30.30;19.08;98351.44;5072685;28;20046;-45
2021/05/16 07:47:41;;;;;;;0.10;0.10;;;;;;;30.28;19.08;98358.69;5090536;28;20060;-53
2021/05/16 07:50:10;;;;;;;0.10;0.10;;;;;;;30.27;19.20;98359.88;5090375;28;20032;-53
2021/05/16 07:52:36;;;;;;;0.10;0.10;;;;;;;30.26;19.25;98366.75;5069115;28;20499;-52
2021/05/16 07:55:02;;;;;;;0.08;0.08;;;;;;;30.26;19.03;98366.75;5091407;28;20104;-50
2021/05/16 07:57:28;;;;;;;0.57;0.57;;;;;;;30.25;19.15;98357.41;5091341;28;20028;-50
2021/05/16 07:59:54;;;;;;;0.20;0.10;;;;;;;30.25;19.32;98365.91;5088402;28;20036;-51
2021/05/16 08:02:20;;;;;;;0.10;0.10;;;;;;;30.26;19.18;98359.06;5091096;28;20063;-52
2021/05/16 08:04:46;;;;;;;0.00;0.00;;;;;;;30.28;18.94;98359.50;5090778;28;20101;-48
2021/05/16 08:07:11;;;;;;;0.08;0.08;;;;;;;30.33;18.98;98361.19;5072850;28;20032;-46
2021/05/16 08:09:37;;;;;;;0.13;0.13;;;;;;;30.35;19.13;98356.78;5071638;28;20504;-50
2021/05/16 08:12:04;;;;;;;0.20;0.20;;;;;;;30.37;18.73;98343.09;5090582;28;20101;-52
2021/05/16 08:14:30;;;;;;;0.25;0.25;;;;;;;30.39;18.84;98365.34;5072458;28;20555;-53
2021/05/16 08:16:56;;;;;;;0.00;0.00;;;;;;;30.40;18.89;98344.31;5090500;28;20184;-50
2021/05/16 08:19:25;;;;;;;5.57;0.77;;;;;;;30.39;18.88;98351.19;5088222;28;20514;-51
2021/05/16 08:21:51;;;;;;;0.90;0.57;;;;;;;30.38;18.80;98347.53;5086830;28;20413;-51
2021/05/16 08:24:17;;;;;;;0.40;0.25;;;;;;;30.41;18.73;98343.16;5090261;28;20036;-52
2021/05/16 08:26:43;;;;;;;0.00;0.00;;;;;;;30.43;18.81;98351.28;5090373;28;20390;-52
2021/05/16 08:29:09;;;;;;;1.25;0.43;;;;;;;30.42;18.98;98329.81;5090117;28;20035;-56
2021/05/16 08:31:35;;;;;;;0.00;0.00;;;;;;;30.46;18.66;98350.50;5090249;28;20028;-50
2021/05/16 08:34:05;;;;;;;0.03;0.03;;;;;;;30.45;18.78;98338.38;5090613;28;20032;-53
2021/05/16 08:36:33;;;;;;;0.10;0.10;;;;;;;30.45;18.75;98335.53;5072217;28;20122;-52
2021/05/16 08:38:59;;;;;;;0.40;0.40;;;;;;;30.46;18.81;98336.34;5090362;28;20024;-51
2021/05/16 08:41:25;;;;;;;0.15;0.15;;;;;;;30.49;18.47;98325.09;5090177;28;20050;-54
2021/05/16 08:43:51;;;;;;;0.05;0.05;;;;;;;30.51;18.51;98324.72;5090575;28;20111;-50
2021/05/16 08:46:17;;;;;;;0.28;0.10;;;;;;;30.54;18.78;98332.44;5089705;28;20060;-54
2021/05/16 08:48:43;;;;;;;0.35;0.30;;;;;;;30.54;18.45;98326.78;5090709;28;20043;-52
2021/05/16 08:51:10;;;;;;;0.00;0.00;;;;;;;30.54;18.33;98326.78;5089827;28;20027;-51
2021/05/16 08:53:37;;;;;;;0.65;0.20;;;;;;;30.54;18.45;98323.94;5088008;28;20035;-54
2021/05/16 08:56:09;;;;;;;0.00;0.00;;;;;;;30.53;18.54;98325.13;5087636;28;20027;-53
2021/05/16 08:58:37;;;;;;;0.05;0.05;;;;;;;30.53;18.61;98333.63;5089767;28;20062;-51
2021/05/16 09:01:23;;;;;;;0.32;0.32;;;;;;;30.52;18.38;98317.81;5088371;28;20036;-58
2021/05/16 09:03:50;;;;;;;0.00;0.00;;;;;;;30.53;18.20;98310.97;5089416;28;20043;-52
2021/05/16 09:06:17;;;;;;;0.10;0.10;;;;;;;30.54;18.37;98318.28;5089793;28;20027;-54
2021/05/16 09:08:43;;;;;;;0.00;0.00;;;;;;;30.50;18.63;98309.72;5087707;28;20062;-54
2021/05/16 09:11:10;;;;;;;0.10;0.10;;;;;;;30.47;18.37;98315.34;5089319;28;20386;-51
2021/05/16 09:13:41;;;;;;;0.00;0.00;;;;;;;30.46;18.35;98308.81;5089537;28;20032;-53
2021/05/16 09:16:17;;;;;;;0.10;0.10;;;;;;;30.46;18.45;98310.84;5088231;28;20173;-51
2021/05/16 09:18:47;;;;;;;0.20;0.20;;;;;;;30.45;18.36;98309.22;5089534;28;20031;-53
2021/05/16 09:21:31;;;;;;;0.10;0.10;;;;;;;30.37;18.71;98300.59;5053781;28;20469;-53
2021/05/16 09:23:59;;;;;;;0.00;0.00;;;;;;;30.29;18.62;98304.50;5090106;28;20039;-52
2021/05/16 09:26:26;;;;;;;0.13;0.13;;;;;;;30.20;18.62;98296.25;5090188;28;20505;-52
2021/05/16 09:28:53;;;;;;;0.03;0.03;;;;;;;30.15;18.43;98307.09;5090953;28;20036;-53
2021/05/16 09:31:35;;;;;;;0.17;0.17;;;;;;;30.16;18.52;98300.25;5089534;28;20127;-51
2021/05/16 09:34:06;;;;;;;0.00;0.00;;;;;;;30.19;18.43;98288.97;5088872;28;20185;-49
2021/05/16 09:36:36;;;;;;;0.30;0.30;;;;;;;30.20;18.43;98284.13;5089118;28;20077;-50
2021/05/16 09:39:22;;;;;;;0.10;0.10;;;;;;;30.21;18.20;98280.09;5089421;28;20032;-55
2021/05/16 09:42:06;;;;;;;0.00;0.00;;;;;;;30.22;18.46;98293.84;5069764;28;20040;-52
2021/05/16 09:44:38;;;;;;;0.00;0.00;;;;;;;30.26;18.34;98291.09;5087428;28;20114;-51
2021/05/16 09:47:28;;;;;;;0.00;0.00;;;;;;;30.27;18.10;98272.94;5087835;28;20143;-52
2021/05/16 09:49:56;;;;;;;0.00;0.00;;;;;;;30.33;18.15;98282.72;5087480;28;20044;-53
2021/05/16 09:52:31;;;;;;;0.00;0.00;;;;;;;30.38;17.81;98290.88;5088543;28;20070;-51
2021/05/16 09:55:02;;;;;;;0.10;0.10;;;;;;;30.39;18.07;98280.38;5088416;28;20032;-54
2021/05/16 09:57:41;;;;;;;0.10;0.10;;;;;;;30.40;18.12;98277.19;5087384;28;20039;-52
2021/05/16 10:00:15;;;;;;;0.10;0.10;;;;;;;30.39;18.12;98275.53;5069375;28;20393;-53
2021/05/16 10:02:42;;;;;;;0.00;0.00;;;;;;;30.41;17.85;98289.34;5088362;28;20031;-52
2021/05/16 10:05:14;;;;;;;0.10;0.10;;;;;;;30.39;17.99;98286.06;5088614;28;20035;-53
2021/05/16 10:07:41;;;;;;;0.22;0.22;;;;;;;30.40;18.09;98297.00;5088814;28;20032;-52
2021/05/16 10:10:12;;;;;;;0.00;0.00;;;;;;;30.45;17.88;98281.72;5088458;28;20020;-53
2021/05/16 10:12:39;;;;;;;0.10;0.10;;;;;;;30.50;17.65;98286.25;5088870;28;20059;-53
2021/05/16 10:15:25;;;;;;;0.10;0.10;;;;;;;30.55;17.78;98274.56;5087933;28;20028;-53
2021/05/16 10:17:54;;;;;;;0.00;0.00;;;;;;;30.56;17.62;98274.19;5088446;28;20051;-54
2021/05/16 10:20:26;;;;;;;0.00;0.00;;;;;;;30.59;17.60;98278.28;5088105;28;20032;-54
2021/05/16 10:23:00;;;;;;;0.20;0.20;;;;;;;30.66;17.47;98277.56;5088177;28;20414;-54
2021/05/16 10:25:43;;;;;;;0.10;0.10;;;;;;;30.73;17.41;98260.69;5086584;28;20056;-51
2021/05/16 10:28:15;;;;;;;0.00;0.00;;;;;;;30.81;17.34;98278.59;5086842;28;20060;-52
2021/05/16 10:31:01;;;;;;;0.28;0.28;;;;;;;30.91;17.27;98275.09;5072325;28;20362;-53
2021/05/16 10:33:34;;;;;;;0.13;0.13;;;;;;;30.92;17.25;98274.69;5089804;28;20044;-52
2021/05/16 10:36:00;;;;;;;0.10;0.10;;;;;;;30.93;17.26;98273.50;5089867;28;20043;-53
2021/05/16 10:38:36;;;;;;;0.00;0.00;;;;;;;30.91;17.37;98275.91;5086226;28;20028;-49
2021/05/16 10:41:25;;;;;;;0.00;0.00;;;;;;;30.91;17.41;98272.25;5088680;28;20040;-47
2021/05/16 10:44:11;;;;;;;0.00;0.00;;;;;;;30.90;17.23;98273.44;5089475;28;20063;-47
2021/05/16 10:46:36;;;;;;;0.10;0.10;;;;;;;30.88;17.37;98281.53;5089988;28;20048;-51
2021/05/16 10:49:21;;;;;;;1.58;0.60;;;;;;;30.89;17.34;98272.63;5089624;28;20024;-51
2021/05/16 10:51:47;;;;;;;0.20;0.20;;;;;;;30.90;17.35;98271.44;5071528;28;20036;-46
2021/05/16 10:54:30;;;;;;;0.52;0.35;;;;;;;30.95;17.25;98269.44;5070708;28;20020;-51
2021/05/16 10:57:23;;;;;;;0.10;0.10;;;;;;;30.97;16.99;98262.19;5089415;28;20036;-42
2021/05/16 10:59:50;;;;;;;0.20;0.20;;;;;;;30.98;17.31;98263.84;5089834;28;20066;-45
2021/05/16 11:02:53;;;;;;;0.00;0.00;;;;;;;30.96;17.07;98266.22;5087349;28;20044;-52
2021/05/16 11:05:59;;;;;;;0.00;0.00;;;;;;;30.87;17.23;98263.69;5088373;28;20397;-41
2021/05/16 11:08:28;;;;;;;0.00;0.00;;;;;;;30.81;17.19;98265.22;5088829;28;20050;-45
2021/05/16 11:10:55;;;;;;;0.05;0.05;;;;;;;30.80;17.14;98277.78;5088846;28;20405;-41
2021/05/16 11:13:27;;;;;;;0.00;0.00;;;;;;;30.79;16.97;98259.13;5071908;28;20094;-42
2021/05/16 11:16:05;;;;;;;0.08;0.08;;;;;;;30.75;17.12;98252.59;5069708;28;20043;-46
2021/05/16 11:18:31;;;;;;;0.15;0.13;;;;;;;30.77;17.20;98255.03;5087441;28;20036;-42
2021/05/16 11:20:59;;;;;;;0.00;0.00;;;;;;;30.78;17.22;98256.69;5089104;28;20150;-46
2021/05/16 11:23:26;;;;;;;0.10;0.10;;;;;;;30.79;17.10;98264.00;5089855;28;20040;-42
2021/05/16 11:25:55;;;;;;;0.00;0.00;;;;;;;30.79;17.08;98252.66;5089309;28;20520;-42
2021/05/16 11:28:23;;;;;;;0.03;0.03;;;;;;;30.80;17.47;98252.28;5071345;28;20032;-50
2021/05/16 11:30:53;;;;;;;0.00;0.00;;;;;;;30.83;16.93;98247.84;5085899;28;21416;-45
2021/05/16 11:33:32;;;;;;;0.00;0.00;;;;;;;30.86;17.02;98227.22;5089344;28;20089;-50
2021/05/16 11:36:27;;;;;;;0.00;0.00;;;;;;;30.92;17.01;98242.72;5089271;28;20039;-46
2021/05/16 11:38:54;;;;;;;0.00;0.00;;;;;;;30.94;16.91;98248.81;5086250;28;20509;-50
2021/05/16 11:41:27;;;;;;;0.05;0.05;;;;;;;30.92;17.04;98246.34;5089616;28;20121;-50